createdAt,value
2019-02-16T14:28:07.534Z,22.52
2019-02-16T14:30:45.859Z,24.86
2019-02-16T14:31:46.064Z,24.94
2019-02-16T14:33:18.896Z,24.79
2019-02-16T14:34:19.094Z,24.79
2019-02-16T14:35:52.004Z,24.79
2019-02-16T14:36:52.258Z,24.63
2019-02-16T14:57:57.051Z,22.59
2019-02-16T14:58:57.258Z,22.12
2019-02-16T14:59:57.446Z,22.31
2019-02-16T15:00:57.644Z,22.26
2019-02-16T15:01:57.846Z,22.79
2019-02-16T15:02:58.057Z,23.44
2019-02-16T15:03:58.249Z,23.18
2019-02-16T15:04:58.444Z,23.06
2019-02-16T15:05:58.640Z,22.85
2019-02-16T15:06:58.829Z,22.99
2019-02-16T15:07:59.020Z,23.18
2019-02-16T15:08:59.210Z,23.14
2019-02-16T15:09:59.401Z,22.94
2019-02-16T15:10:59.584Z,22.33
2019-02-16T15:11:59.767Z,22.29
2019-02-16T15:12:59.967Z,22.26
2019-02-16T15:14:00.162Z,22.24
2019-02-16T15:15:00.369Z,22.26
2019-02-16T15:16:00.557Z,22.12
2019-02-16T15:17:00.742Z,22.06
2019-02-16T15:18:00.957Z,21.83
2019-02-16T15:19:01.156Z,21.73
2019-02-16T15:20:01.341Z,21.64
2019-02-16T15:21:01.536Z,21.67
2019-02-16T15:22:02.855Z,21.48
2019-02-16T15:23:03.007Z,21.33
2019-02-16T15:24:03.197Z,21.12
2019-02-16T15:25:03.339Z,20.88
2019-02-16T15:26:03.489Z,20.42
2019-02-16T15:27:03.642Z,20.40
2019-02-16T15:28:03.778Z,20.19
2019-02-16T15:29:03.946Z,19.71
2019-02-16T15:30:04.072Z,19.64
2019-02-16T15:31:04.202Z,19.67
2019-02-16T15:32:04.344Z,19.47
2019-02-16T15:33:04.509Z,19.31
2019-02-16T15:34:04.689Z,19.07
2019-02-16T15:35:04.843Z,18.60
2019-02-16T15:41:09.383Z,17.12
2019-02-16T15:42:27.406Z,16.81
2019-02-16T16:24:33.737Z,12.67
2019-02-16T16:26:52.254Z,12.71
2019-02-16T16:28:11.420Z,12.62
2019-02-16T16:43:04.704Z,18.26
2019-02-16T16:44:13.213Z,18.66
2019-02-16T16:47:25.261Z,19.89
2019-02-16T16:48:32.387Z,20.20
